sensor_id;sensor_type;location;lat;lon;timestamp;P1;durP1;ratioP1;P2;durP2;ratioP2
48809;SDS011;40070;47.322;18.784;2024-01-15T00:01:25;24.00;;;12.59;;
48809;SDS011;40070;47.322;18.784;2024-01-15T00:03:26;23.42;;;9.19;;
48809;SDS011;40070;47.322;18.784;2024-01-15T00:05:27;22.33;;;9.89;;
48809;SDS011;40070;47.322;18.784;2024-01-15T00:07:28;31.22;;;11.39;;
48809;SDS011;40070;47.322;18.784;2024-01-15T00:09:29;23.12;;;10.79;;
48809;SDS011;40070;47.322;18.784;2024-01-15T00:11:30;29.66;;;11.79;;
48809;SDS011;40070;47.322;18.784;2024-01-15T00:13:31;27.76;;;10.69;;
48809;SDS011;40070;47.322;18.784;2024-01-15T00:15:32;21.34;;;10.99;;
48809;SDS011;40070;47.322;18.784;2024-01-15T00:17:33;24.89;;;11.09;;
48809;SDS011;40070;47.322;18.784;2024-01-15T00:19:34;21.55;;;10.49;;
48809;SDS011;40070;47.322;18.784;2024-01-15T00:21:35;29.37;;;12.89;;
48809;SDS011;40070;47.322;18.784;2024-01-15T00:23:36;28.58;;;10.79;;
48809;SDS011;40070;47.322;18.784;2024-01-15T00:25:37;29.89;;;11.09;;
48809;SDS011;40070;47.322;18.784;2024-01-15T00:27:38;24.92;;;10.19;;
48809;SDS011;40070;47.322;18.784;2024-01-15T00:29:40;21.13;;;10.29;;
48809;SDS011;40070;47.322;18.784;2024-01-15T00:31:41;24.55;;;10.29;;
48809;SDS011;40070;47.322;18.784;2024-01-15T00:33:41;32.60;;;11.89;;
48809;SDS011;40070;47.322;18.784;2024-01-15T00:35:42;26.46;;;12.39;;
48809;SDS011;40070;47.322;18.784;2024-01-15T00:37:44;27.43;;;11.29;;
48809;SDS011;40070;47.322;18.784;2024-01-15T00:39:44;18.50;;;10.49;;
48809;SDS011;40070;47.322;18.784;2024-01-15T00:41:46;26.25;;;11.99;;
48809;SDS011;40070;47.322;18.784;2024-01-15T00:43:47;31.34;;;12.39;;
48809;SDS011;40070;47.322;18.784;2024-01-15T00:45:48;25.79;;;11.49;;
48809;SDS011;40070;47.322;18.784;2024-01-15T00:47:51;24.32;;;10.59;;
48809;SDS011;40070;47.322;18.784;2024-01-15T00:49:52;26.59;;;11.09;;
48809;SDS011;40070;47.322;18.784;2024-01-15T00:51:53;27.58;;;11.19;;
48809;SDS011;40070;47.322;18.784;2024-01-15T00:53:54;23.12;;;10.39;;
48809;SDS011;40070;47.322;18.784;2024-01-15T00:55:55;27.78;;;9.89;;
48809;SDS011;40070;47.322;18.784;2024-01-15T00:57:56;21.45;;;9.59;;
48809;SDS011;40070;47.322;18.784;2024-01-15T00:59:57;22.89;;;10.29;;
48809;SDS011;40070;47.322;18.784;2024-01-15T01:01:58;25.58;;;11.29;;
48809;SDS011;40070;47.322;18.784;2024-01-15T01:03:59;23.58;;;11.19;;
48809;SDS011;40070;47.322;18.784;2024-01-15T01:06:00;28.66;;;12.48;;
48809;SDS011;40070;47.322;18.784;2024-01-15T01:08:01;21.48;;;9.39;;
48809;SDS011;40070;47.322;18.784;2024-01-15T01:10:02;25.21;;;10.78;;
48809;SDS011;40070;47.322;18.784;2024-01-15T01:12:03;27.44;;;11.58;;
48809;SDS011;40070;47.322;18.784;2024-01-15T01:14:04;22.78;;;10.58;;
48809;SDS011;40070;47.322;18.784;2024-01-15T01:16:05;17.13;;;9.18;;
48809;SDS011;40070;47.322;18.784;2024-01-15T01:18:06;22.61;;;10.48;;
48809;SDS011;40070;47.322;18.784;2024-01-15T01:20:07;28.46;;;11.17;;
48809;SDS011;40070;47.322;18.784;2024-01-15T01:22:08;26.49;;;11.67;;
48809;SDS011;40070;47.322;18.784;2024-01-15T01:24:09;28.31;;;11.28;;
48809;SDS011;40070;47.322;18.784;2024-01-15T01:26:10;31.98;;;12.18;;
48809;SDS011;40070;47.322;18.784;2024-01-15T01:28:11;25.61;;;10.17;;
48809;SDS011;40070;47.322;18.784;2024-01-15T01:30:12;19.42;;;9.78;;
48809;SDS011;40070;47.322;18.784;2024-01-15T01:32:16;26.06;;;10.08;;
48809;SDS011;40070;47.322;18.784;2024-01-15T01:34:17;25.18;;;10.58;;
48809;SDS011;40070;47.322;18.784;2024-01-15T01:36:18;25.44;;;11.07;;
48809;SDS011;40070;47.322;18.784;2024-01-15T01:38:19;30.84;;;11.48;;
48809;SDS011;40070;47.322;18.784;2024-01-15T01:40:20;20.12;;;9.98;;
48809;SDS011;40070;47.322;18.784;2024-01-15T01:42:21;19.67;;;11.18;;
48809;SDS011;40070;47.322;18.784;2024-01-15T01:44:22;28.60;;;11.78;;
48809;SDS011;40070;47.322;18.784;2024-01-15T01:46:23;25.20;;;10.58;;
48809;SDS011;40070;47.322;18.784;2024-01-15T01:48:25;24.78;;;10.18;;
48809;SDS011;40070;47.322;18.784;2024-01-15T01:50:25;24.25;;;10.69;;
48809;SDS011;40070;47.322;18.784;2024-01-15T01:52:28;23.43;;;10.28;;
48809;SDS011;40070;47.322;18.784;2024-01-15T01:54:29;22.79;;;11.48;;
48809;SDS011;40070;47.322;18.784;2024-01-15T01:56:31;27.12;;;10.88;;
48809;SDS011;40070;47.322;18.784;2024-01-15T01:58:33;26.42;;;11.18;;
48809;SDS011;40070;47.322;18.784;2024-01-15T02:00:34;24.40;;;10.48;;
48809;SDS011;40070;47.322;18.784;2024-01-15T02:02:35;25.67;;;11.38;;
48809;SDS011;40070;47.322;18.784;2024-01-15T02:04:37;27.88;;;11.78;;
48809;SDS011;40070;47.322;18.784;2024-01-15T02:06:38;29.23;;;9.69;;
48809;SDS011;40070;47.322;18.784;2024-01-15T02:08:39;22.63;;;11.28;;
48809;SDS011;40070;47.322;18.784;2024-01-15T02:10:40;22.75;;;11.08;;
48809;SDS011;40070;47.322;18.784;2024-01-15T02:12:42;25.40;;;11.68;;
48809;SDS011;40070;47.322;18.784;2024-01-15T02:14:42;22.29;;;10.48;;
48809;SDS011;40070;47.322;18.784;2024-01-15T02:16:43;24.49;;;10.98;;
48809;SDS011;40070;47.322;18.784;2024-01-15T02:18:45;25.68;;;10.38;;
48809;SDS011;40070;47.322;18.784;2024-01-15T02:20:46;28.37;;;11.18;;
48809;SDS011;40070;47.322;18.784;2024-01-15T02:22:47;26.97;;;12.57;;
48809;SDS011;40070;47.322;18.784;2024-01-15T02:24:48;22.51;;;11.38;;
48809;SDS011;40070;47.322;18.784;2024-01-15T02:26:49;23.17;;;9.98;;
48809;SDS011;40070;47.322;18.784;2024-01-15T02:28:50;45.90;;;14.18;;
48809;SDS011;40070;47.322;18.784;2024-01-15T02:30:52;26.05;;;14.58;;
48809;SDS011;40070;47.322;18.784;2024-01-15T02:32:53;35.11;;;13.88;;
48809;SDS011;40070;47.322;18.784;2024-01-15T02:34:54;27.68;;;13.98;;
48809;SDS011;40070;47.322;18.784;2024-01-15T02:36:55;32.10;;;12.38;;
48809;SDS011;40070;47.322;18.784;2024-01-15T02:38:56;25.21;;;11.78;;
48809;SDS011;40070;47.322;18.784;2024-01-15T02:40:57;24.84;;;12.18;;
48809;SDS011;40070;47.322;18.784;2024-01-15T02:42:58;27.43;;;13.18;;
48809;SDS011;40070;47.322;18.784;2024-01-15T02:44:59;29.44;;;11.38;;
48809;SDS011;40070;47.322;18.784;2024-01-15T02:47:00;27.38;;;12.18;;
48809;SDS011;40070;47.322;18.784;2024-01-15T02:49:00;23.24;;;10.88;;
48809;SDS011;40070;47.322;18.784;2024-01-15T02:51:02;27.20;;;12.48;;
48809;SDS011;40070;47.322;18.784;2024-01-15T02:53:03;29.60;;;12.88;;
48809;SDS011;40070;47.322;18.784;2024-01-15T02:55:04;27.52;;;10.98;;
48809;SDS011;40070;47.322;18.784;2024-01-15T02:57:04;29.13;;;12.97;;
48809;SDS011;40070;47.322;18.784;2024-01-15T02:59:05;27.33;;;11.28;;
48809;SDS011;40070;47.322;18.784;2024-01-15T03:01:07;34.68;;;13.18;;
48809;SDS011;40070;47.322;18.784;2024-01-15T03:03:08;30.14;;;11.88;;
48809;SDS011;40070;47.322;18.784;2024-01-15T03:05:09;26.45;;;12.48;;
48809;SDS011;40070;47.322;18.784;2024-01-15T03:07:10;25.37;;;11.38;;
48809;SDS011;40070;47.322;18.784;2024-01-15T03:09:11;22.97;;;11.28;;
48809;SDS011;40070;47.322;18.784;2024-01-15T03:11:12;31.34;;;12.67;;
48809;SDS011;40070;47.322;18.784;2024-01-15T03:13:13;22.30;;;10.88;;
48809;SDS011;40070;47.322;18.784;2024-01-15T03:15:14;26.15;;;10.98;;
48809;SDS011;40070;47.322;18.784;2024-01-15T03:17:15;20.93;;;10.68;;
48809;SDS011;40070;47.322;18.784;2024-01-15T03:19:16;27.57;;;11.08;;
48809;SDS011;40070;47.322;18.784;2024-01-15T03:21:17;27.54;;;11.78;;
48809;SDS011;40070;47.322;18.784;2024-01-15T03:23:18;29.95;;;12.88;;
48809;SDS011;40070;47.322;18.784;2024-01-15T03:25:19;30.88;;;12.39;;
48809;SDS011;40070;47.322;18.784;2024-01-15T03:27:20;36.23;;;13.28;;
48809;SDS011;40070;47.322;18.784;2024-01-15T03:29:21;24.51;;;11.78;;
48809;SDS011;40070;47.322;18.784;2024-01-15T03:31:22;26.31;;;12.48;;
48809;SDS011;40070;47.322;18.784;2024-01-15T03:33:23;24.24;;;12.38;;
48809;SDS011;40070;47.322;18.784;2024-01-15T03:35:23;22.25;;;11.38;;
48809;SDS011;40070;47.322;18.784;2024-01-15T03:37:24;25.43;;;11.09;;
48809;SDS011;40070;47.322;18.784;2024-01-15T03:39:25;22.67;;;10.99;;
48809;SDS011;40070;47.322;18.784;2024-01-15T03:41:26;27.10;;;12.38;;
48809;SDS011;40070;47.322;18.784;2024-01-15T03:43:27;26.80;;;9.89;;
48809;SDS011;40070;47.322;18.784;2024-01-15T03:45:28;21.53;;;10.79;;
48809;SDS011;40070;47.322;18.784;2024-01-15T03:47:29;23.72;;;10.78;;
48809;SDS011;40070;47.322;18.784;2024-01-15T03:49:30;26.55;;;12.18;;
48809;SDS011;40070;47.322;18.784;2024-01-15T03:51:31;19.25;;;10.08;;
48809;SDS011;40070;47.322;18.784;2024-01-15T03:53:32;20.57;;;9.98;;
48809;SDS011;40070;47.322;18.784;2024-01-15T03:55:34;26.42;;;11.57;;
48809;SDS011;40070;47.322;18.784;2024-01-15T03:57:35;21.12;;;10.66;;
48809;SDS011;40070;47.322;18.784;2024-01-15T03:59:36;26.14;;;10.47;;
48809;SDS011;40070;47.322;18.784;2024-01-15T04:01:40;20.83;;;10.48;;
48809;SDS011;40070;47.322;18.784;2024-01-15T04:03:41;20.72;;;10.28;;
48809;SDS011;40070;47.322;18.784;2024-01-15T04:05:42;25.80;;;12.77;;
48809;SDS011;40070;47.322;18.784;2024-01-15T04:07:43;20.96;;;10.97;;
48809;SDS011;40070;47.322;18.784;2024-01-15T04:09:44;27.30;;;11.57;;
48809;SDS011;40070;47.322;18.784;2024-01-15T04:11:45;20.65;;;10.87;;
48809;SDS011;40070;47.322;18.784;2024-01-15T04:13:46;21.68;;;11.26;;
48809;SDS011;40070;47.322;18.784;2024-01-15T04:15:47;18.11;;;8.77;;
48809;SDS011;40070;47.322;18.784;2024-01-15T04:17:48;26.20;;;10.78;;
48809;SDS011;40070;47.322;18.784;2024-01-15T04:19:49;21.98;;;12.17;;
48809;SDS011;40070;47.322;18.784;2024-01-15T04:21:50;24.83;;;11.56;;
48809;SDS011;40070;47.322;18.784;2024-01-15T04:23:51;25.64;;;11.67;;
48809;SDS011;40070;47.322;18.784;2024-01-15T04:25:52;23.74;;;10.98;;
48809;SDS011;40070;47.322;18.784;2024-01-15T04:27:53;22.66;;;10.18;;
48809;SDS011;40070;47.322;18.784;2024-01-15T04:29:54;22.49;;;11.88;;
48809;SDS011;40070;47.322;18.784;2024-01-15T04:31:55;23.67;;;10.98;;
48809;SDS011;40070;47.322;18.784;2024-01-15T04:33:56;26.93;;;11.88;;
48809;SDS011;40070;47.322;18.784;2024-01-15T04:35:57;26.54;;;12.48;;
48809;SDS011;40070;47.322;18.784;2024-01-15T04:37:58;34.01;;;12.98;;
48809;SDS011;40070;47.322;18.784;2024-01-15T04:39:59;26.26;;;12.48;;
48809;SDS011;40070;47.322;18.784;2024-01-15T04:42:00;28.53;;;12.58;;
48809;SDS011;40070;47.322;18.784;2024-01-15T04:44:01;21.73;;;10.88;;
48809;SDS011;40070;47.322;18.784;2024-01-15T04:46:02;25.97;;;11.48;;
48809;SDS011;40070;47.322;18.784;2024-01-15T04:48:03;21.48;;;11.38;;
48809;SDS011;40070;47.322;18.784;2024-01-15T04:50:04;28.33;;;12.68;;
48809;SDS011;40070;47.322;18.784;2024-01-15T04:52:05;24.11;;;10.78;;
48809;SDS011;40070;47.322;18.784;2024-01-15T04:54:06;25.09;;;12.58;;
48809;SDS011;40070;47.322;18.784;2024-01-15T04:56:07;25.73;;;12.59;;
48809;SDS011;40070;47.322;18.784;2024-01-15T04:58:08;34.29;;;12.59;;
48809;SDS011;40070;47.322;18.784;2024-01-15T05:00:10;27.46;;;11.49;;
48809;SDS011;40070;47.322;18.784;2024-01-15T05:02:10;29.45;;;13.28;;
48809;SDS011;40070;47.322;18.784;2024-01-15T05:04:11;26.64;;;12.20;;
48809;SDS011;40070;47.322;18.784;2024-01-15T05:06:12;29.45;;;13.60;;
48809;SDS011;40070;47.322;18.784;2024-01-15T05:08:13;24.88;;;12.20;;
48809;SDS011;40070;47.322;18.784;2024-01-15T05:10:14;28.17;;;11.90;;
48809;SDS011;40070;47.322;18.784;2024-01-15T05:12:15;25.98;;;12.20;;
48809;SDS011;40070;47.322;18.784;2024-01-15T05:14:16;28.76;;;13.70;;
48809;SDS011;40070;47.322;18.784;2024-01-15T05:16:17;43.00;;;13.50;;
48809;SDS011;40070;47.322;18.784;2024-01-15T05:18:18;33.65;;;12.60;;
48809;SDS011;40070;47.322;18.784;2024-01-15T05:20:19;32.35;;;14.60;;
48809;SDS011;40070;47.322;18.784;2024-01-15T05:22:20;42.40;;;14.00;;
48809;SDS011;40070;47.322;18.784;2024-01-15T05:24:21;30.75;;;13.40;;
48809;SDS011;40070;47.322;18.784;2024-01-15T05:26:22;29.75;;;12.49;;
48809;SDS011;40070;47.322;18.784;2024-01-15T05:28:23;27.20;;;13.59;;
48809;SDS011;40070;47.322;18.784;2024-01-15T05:30:24;35.36;;;12.69;;
48809;SDS011;40070;47.322;18.784;2024-01-15T05:32:25;32.30;;;14.19;;
48809;SDS011;40070;47.322;18.784;2024-01-15T05:34:26;32.04;;;13.29;;
48809;SDS011;40070;47.322;18.784;2024-01-15T05:36:27;36.51;;;12.70;;
48809;SDS011;40070;47.322;18.784;2024-01-15T05:38:28;30.67;;;12.30;;
48809;SDS011;40070;47.322;18.784;2024-01-15T05:40:29;29.98;;;13.00;;
48809;SDS011;40070;47.322;18.784;2024-01-15T05:42:30;28.88;;;13.20;;
48809;SDS011;40070;47.322;18.784;2024-01-15T05:44:31;24.09;;;12.90;;
48809;SDS011;40070;47.322;18.784;2024-01-15T05:46:32;31.36;;;13.50;;
48809;SDS011;40070;47.322;18.784;2024-01-15T05:48:33;25.87;;;12.70;;
48809;SDS011;40070;47.322;18.784;2024-01-15T05:50:34;37.59;;;13.40;;
48809;SDS011;40070;47.322;18.784;2024-01-15T05:52:35;24.46;;;12.60;;
48809;SDS011;40070;47.322;18.784;2024-01-15T05:56:38;19.19;;;9.80;;
48809;SDS011;40070;47.322;18.784;2024-01-15T05:58:40;23.28;;;11.20;;
48809;SDS011;40070;47.322;18.784;2024-01-15T06:00:41;25.46;;;12.60;;
48809;SDS011;40070;47.322;18.784;2024-01-15T06:02:42;32.43;;;14.40;;
48809;SDS011;40070;47.322;18.784;2024-01-15T06:04:43;28.65;;;13.00;;
48809;SDS011;40070;47.322;18.784;2024-01-15T06:06:44;30.43;;;12.90;;
48809;SDS011;40070;47.322;18.784;2024-01-15T06:08:45;24.37;;;11.40;;
48809;SDS011;40070;47.322;18.784;2024-01-15T06:10:46;27.95;;;11.28;;
48809;SDS011;40070;47.322;18.784;2024-01-15T06:12:47;26.14;;;12.68;;
48809;SDS011;40070;47.322;18.784;2024-01-15T06:14:48;22.85;;;11.67;;
48809;SDS011;40070;47.322;18.784;2024-01-15T06:16:52;24.57;;;12.32;;
48809;SDS011;40070;47.322;18.784;2024-01-15T06:18:53;23.88;;;11.01;;
48809;SDS011;40070;47.322;18.784;2024-01-15T06:20:55;30.05;;;12.49;;
48809;SDS011;40070;47.322;18.784;2024-01-15T06:22:56;24.87;;;13.26;;
48809;SDS011;40070;47.322;18.784;2024-01-15T06:24:57;24.29;;;12.15;;
48809;SDS011;40070;47.322;18.784;2024-01-15T06:26:58;26.91;;;10.96;;
48809;SDS011;40070;47.322;18.784;2024-01-15T06:28:59;21.21;;;11.25;;
48809;SDS011;40070;47.322;18.784;2024-01-15T06:31:00;22.09;;;10.17;;
48809;SDS011;40070;47.322;18.784;2024-01-15T06:33:01;26.58;;;10.75;;
48809;SDS011;40070;47.322;18.784;2024-01-15T06:35:02;25.19;;;12.14;;
48809;SDS011;40070;47.322;18.784;2024-01-15T06:37:03;21.66;;;11.83;;
48809;SDS011;40070;47.322;18.784;2024-01-15T06:39:04;22.71;;;13.49;;
48809;SDS011;40070;47.322;18.784;2024-01-15T06:41:05;24.24;;;11.43;;
48809;SDS011;40070;47.322;18.784;2024-01-15T06:43:06;23.76;;;12.71;;
48809;SDS011;40070;47.322;18.784;2024-01-15T06:45:07;21.17;;;11.72;;
48809;SDS011;40070;47.322;18.784;2024-01-15T06:47:08;25.59;;;14.18;;
48809;SDS011;40070;47.322;18.784;2024-01-15T06:49:09;26.21;;;12.68;;
48809;SDS011;40070;47.322;18.784;2024-01-15T06:51:10;18.96;;;11.41;;
48809;SDS011;40070;47.322;18.784;2024-01-15T06:53:11;26.31;;;12.00;;
48809;SDS011;40070;47.322;18.784;2024-01-15T06:55:12;23.69;;;12.88;;
48809;SDS011;40070;47.322;18.784;2024-01-15T06:57:13;24.81;;;13.16;;
48809;SDS011;40070;47.322;18.784;2024-01-15T06:59:13;31.41;;;14.04;;
48809;SDS011;40070;47.322;18.784;2024-01-15T07:01:14;26.71;;;12.96;;
48809;SDS011;40070;47.322;18.784;2024-01-15T07:03:19;35.49;;;14.02;;
48809;SDS011;40070;47.322;18.784;2024-01-15T07:05:17;23.38;;;13.25;;
48809;SDS011;40070;47.322;18.784;2024-01-15T07:07:18;26.04;;;14.44;;
48809;SDS011;40070;47.322;18.784;2024-01-15T07:09:20;23.08;;;11.66;;
48809;SDS011;40070;47.322;18.784;2024-01-15T07:11:21;29.02;;;12.75;;
48809;SDS011;40070;47.322;18.784;2024-01-15T07:13:22;28.78;;;14.32;;
48809;SDS011;40070;47.322;18.784;2024-01-15T07:15:23;26.10;;;13.36;;
48809;SDS011;40070;47.322;18.784;2024-01-15T07:17:24;31.51;;;14.66;;
48809;SDS011;40070;47.322;18.784;2024-01-15T07:19:25;25.24;;;13.28;;
48809;SDS011;40070;47.322;18.784;2024-01-15T07:21:25;32.68;;;15.64;;
48809;SDS011;40070;47.322;18.784;2024-01-15T07:23:26;35.34;;;18.21;;
48809;SDS011;40070;47.322;18.784;2024-01-15T07:25:27;33.91;;;16.61;;
48809;SDS011;40070;47.322;18.784;2024-01-15T07:27:31;25.53;;;15.55;;
48809;SDS011;40070;47.322;18.784;2024-01-15T07:29:30;29.91;;;13.39;;
48809;SDS011;40070;47.322;18.784;2024-01-15T07:31:31;25.03;;;14.66;;
48809;SDS011;40070;47.322;18.784;2024-01-15T07:33:32;28.70;;;11.70;;
48809;SDS011;40070;47.322;18.784;2024-01-15T07:35:33;27.14;;;13.77;;
48809;SDS011;40070;47.322;18.784;2024-01-15T07:37:34;24.24;;;13.38;;
48809;SDS011;40070;47.322;18.784;2024-01-15T07:39:35;22.35;;;11.82;;
48809;SDS011;40070;47.322;18.784;2024-01-15T07:41:36;28.22;;;13.69;;
48809;SDS011;40070;47.322;18.784;2024-01-15T07:43:40;23.13;;;12.32;;
48809;SDS011;40070;47.322;18.784;2024-01-15T07:45:41;34.63;;;13.41;;
48809;SDS011;40070;47.322;18.784;2024-01-15T07:47:43;39.16;;;17.43;;
48809;SDS011;40070;47.322;18.784;2024-01-15T07:49:44;27.72;;;13.88;;
48809;SDS011;40070;47.322;18.784;2024-01-15T07:51:45;36.11;;;15.76;;
48809;SDS011;40070;47.322;18.784;2024-01-15T07:53:46;33.29;;;16.63;;
48809;SDS011;40070;47.322;18.784;2024-01-15T07:55:47;35.79;;;16.84;;
48809;SDS011;40070;47.322;18.784;2024-01-15T07:57:48;34.42;;;17.60;;
48809;SDS011;40070;47.322;18.784;2024-01-15T07:59:49;35.82;;;16.72;;
48809;SDS011;40070;47.322;18.784;2024-01-15T08:01:50;30.49;;;16.15;;
48809;SDS011;40070;47.322;18.784;2024-01-15T08:03:51;41.04;;;18.72;;
48809;SDS011;40070;47.322;18.784;2024-01-15T08:05:51;40.62;;;19.39;;
48809;SDS011;40070;47.322;18.784;2024-01-15T08:07:52;45.53;;;18.29;;
48809;SDS011;40070;47.322;18.784;2024-01-15T08:09:53;34.75;;;16.71;;
48809;SDS011;40070;47.322;18.784;2024-01-15T08:11:54;44.01;;;18.20;;
48809;SDS011;40070;47.322;18.784;2024-01-15T08:13:57;45.39;;;22.01;;
48809;SDS011;40070;47.322;18.784;2024-01-15T08:15:58;41.60;;;20.24;;
48809;SDS011;40070;47.322;18.784;2024-01-15T08:17:59;35.01;;;16.69;;
48809;SDS011;40070;47.322;18.784;2024-01-15T08:20:00;31.25;;;15.83;;
48809;SDS011;40070;47.322;18.784;2024-01-15T08:22:01;31.95;;;15.54;;
48809;SDS011;40070;47.322;18.784;2024-01-15T08:24:02;30.90;;;15.72;;
48809;SDS011;40070;47.322;18.784;2024-01-15T08:26:03;36.62;;;14.55;;
48809;SDS011;40070;47.322;18.784;2024-01-15T08:28:04;26.69;;;14.08;;
48809;SDS011;40070;47.322;18.784;2024-01-15T08:30:06;31.22;;;15.08;;
48809;SDS011;40070;47.322;18.784;2024-01-15T08:32:07;30.80;;;15.48;;
48809;SDS011;40070;47.322;18.784;2024-01-15T08:34:08;32.06;;;14.50;;
48809;SDS011;40070;47.322;18.784;2024-01-15T08:36:09;29.12;;;14.42;;
48809;SDS011;40070;47.322;18.784;2024-01-15T08:38:10;35.34;;;15.81;;
48809;SDS011;40070;47.322;18.784;2024-01-15T08:40:11;33.06;;;14.93;;
48809;SDS011;40070;47.322;18.784;2024-01-15T08:42:12;27.00;;;13.05;;
48809;SDS011;40070;47.322;18.784;2024-01-15T08:44:13;35.38;;;16.01;;
48809;SDS011;40070;47.322;18.784;2024-01-15T08:46:14;36.77;;;15.62;;
48809;SDS011;40070;47.322;18.784;2024-01-15T08:48:15;34.08;;;14.84;;
48809;SDS011;40070;47.322;18.784;2024-01-15T08:50:16;36.00;;;15.73;;
48809;SDS011;40070;47.322;18.784;2024-01-15T08:52:17;39.67;;;15.84;;
48809;SDS011;40070;47.322;18.784;2024-01-15T08:54:18;30.50;;;15.34;;
48809;SDS011;40070;47.322;18.784;2024-01-15T08:56:19;32.21;;;14.35;;
48809;SDS011;40070;47.322;18.784;2024-01-15T08:58:20;34.87;;;15.77;;
48809;SDS011;40070;47.322;18.784;2024-01-15T09:00:29;25.09;;;11.81;;
48809;SDS011;40070;47.322;18.784;2024-01-15T09:02:28;30.49;;;13.41;;
48809;SDS011;40070;47.322;18.784;2024-01-15T09:04:28;33.54;;;14.78;;
48809;SDS011;40070;47.322;18.784;2024-01-15T09:06:29;30.97;;;14.70;;
48809;SDS011;40070;47.322;18.784;2024-01-15T09:08:30;24.54;;;12.11;;
48809;SDS011;40070;47.322;18.784;2024-01-15T09:10:31;31.69;;;12.81;;
48809;SDS011;40070;47.322;18.784;2024-01-15T09:12:32;23.89;;;11.33;;
48809;SDS011;40070;47.322;18.784;2024-01-15T09:14:33;23.92;;;11.53;;
48809;SDS011;40070;47.322;18.784;2024-01-15T09:16:35;23.65;;;11.25;;
48809;SDS011;40070;47.322;18.784;2024-01-15T09:18:36;21.22;;;9.86;;
48809;SDS011;40070;47.322;18.784;2024-01-15T09:20:40;25.60;;;10.47;;
48809;SDS011;40070;47.322;18.784;2024-01-15T09:22:41;25.29;;;10.56;;
48809;SDS011;40070;47.322;18.784;2024-01-15T09:24:42;25.06;;;11.76;;
48809;SDS011;40070;47.322;18.784;2024-01-15T09:26:43;21.00;;;10.76;;
48809;SDS011;40070;47.322;18.784;2024-01-15T09:28:44;23.96;;;9.37;;
48809;SDS011;40070;47.322;18.784;2024-01-15T09:30:45;20.11;;;10.17;;
48809;SDS011;40070;47.322;18.784;2024-01-15T09:32:46;16.13;;;7.28;;
48809;SDS011;40070;47.322;18.784;2024-01-15T09:34:47;18.58;;;8.28;;
48809;SDS011;40070;47.322;18.784;2024-01-15T09:36:48;15.54;;;7.18;;
48809;SDS011;40070;47.322;18.784;2024-01-15T09:38:49;15.23;;;7.08;;
48809;SDS011;40070;47.322;18.784;2024-01-15T09:40:51;13.52;;;6.59;;
48809;SDS011;40070;47.322;18.784;2024-01-15T09:42:54;11.67;;;5.09;;
48809;SDS011;40070;47.322;18.784;2024-01-15T09:44:55;10.50;;;4.79;;
48809;SDS011;40070;47.322;18.784;2024-01-15T09:46:56;11.80;;;4.09;;
48809;SDS011;40070;47.322;18.784;2024-01-15T09:48:57;11.11;;;3.69;;
48809;SDS011;40070;47.322;18.784;2024-01-15T09:50:58;8.27;;;3.60;;
48809;SDS011;40070;47.322;18.784;2024-01-15T09:52:59;8.56;;;3.79;;
48809;SDS011;40070;47.322;18.784;2024-01-15T09:55:00;8.57;;;3.40;;
48809;SDS011;40070;47.322;18.784;2024-01-15T09:57:01;8.39;;;3.90;;
48809;SDS011;40070;47.322;18.784;2024-01-15T09:59:03;9.67;;;3.30;;
48809;SDS011;40070;47.322;18.784;2024-01-15T10:01:05;8.09;;;3.20;;
48809;SDS011;40070;47.322;18.784;2024-01-15T10:03:06;11.37;;;3.90;;
48809;SDS011;40070;47.322;18.784;2024-01-15T10:05:07;9.40;;;4.10;;
48809;SDS011;40070;47.322;18.784;2024-01-15T10:07:08;10.40;;;3.90;;
48809;SDS011;40070;47.322;18.784;2024-01-15T10:09:09;7.33;;;3.10;;
48809;SDS011;40070;47.322;18.784;2024-01-15T10:11:10;7.03;;;3.00;;
48809;SDS011;40070;47.322;18.784;2024-01-15T10:13:11;8.82;;;3.00;;
48809;SDS011;40070;47.322;18.784;2024-01-15T10:15:12;7.53;;;3.50;;
48809;SDS011;40070;47.322;18.784;2024-01-15T10:17:14;8.33;;;4.20;;
48809;SDS011;40070;47.322;18.784;2024-01-15T10:19:15;7.64;;;2.90;;
48809;SDS011;40070;47.322;18.784;2024-01-15T10:21:16;9.33;;;3.00;;
48809;SDS011;40070;47.322;18.784;2024-01-15T10:23:17;9.04;;;2.80;;
48809;SDS011;40070;47.322;18.784;2024-01-15T10:25:18;8.14;;;3.50;;
48809;SDS011;40070;47.322;18.784;2024-01-15T10:27:18;8.54;;;3.00;;
48809;SDS011;40070;47.322;18.784;2024-01-15T10:29:21;8.84;;;3.40;;
48809;SDS011;40070;47.322;18.784;2024-01-15T10:31:26;9.54;;;3.50;;
48809;SDS011;40070;47.322;18.784;2024-01-15T10:33:30;8.94;;;3.70;;
48809;SDS011;40070;47.322;18.784;2024-01-15T10:35:32;12.52;;;3.50;;
48809;SDS011;40070;47.322;18.784;2024-01-15T10:37:32;9.05;;;3.60;;
48809;SDS011;40070;47.322;18.784;2024-01-15T10:39:33;10.15;;;3.50;;
48809;SDS011;40070;47.322;18.784;2024-01-15T10:41:44;8.16;;;3.10;;
48809;SDS011;40070;47.322;18.784;2024-01-15T10:43:36;9.36;;;3.60;;
48809;SDS011;40070;47.322;18.784;2024-01-15T10:45:37;8.06;;;3.30;;
48809;SDS011;40070;47.322;18.784;2024-01-15T10:47:38;7.57;;;3.20;;
48809;SDS011;40070;47.322;18.784;2024-01-15T10:49:39;8.36;;;3.50;;
48809;SDS011;40070;47.322;18.784;2024-01-15T10:51:41;9.96;;;3.20;;
48809;SDS011;40070;47.322;18.784;2024-01-15T10:53:42;7.27;;;2.70;;
48809;SDS011;40070;47.322;18.784;2024-01-15T10:55:43;5.68;;;2.60;;
48809;SDS011;40070;47.322;18.784;2024-01-15T10:57:46;6.08;;;2.60;;
48809;SDS011;40070;47.322;18.784;2024-01-15T10:59:47;7.38;;;3.00;;
48809;SDS011;40070;47.322;18.784;2024-01-15T11:01:51;8.87;;;3.10;;
48809;SDS011;40070;47.322;18.784;2024-01-15T11:03:49;6.68;;;2.80;;
48809;SDS011;40070;47.322;18.784;2024-01-15T11:05:50;6.98;;;3.40;;
48809;SDS011;40070;47.322;18.784;2024-01-15T11:07:55;8.77;;;3.30;;
48809;SDS011;40070;47.322;18.784;2024-01-15T11:09:54;8.08;;;2.80;;
48809;SDS011;40070;47.322;18.784;2024-01-15T11:12:12;8.08;;;2.30;;
48809;SDS011;40070;47.322;18.784;2024-01-15T11:16:26;6.79;;;2.70;;
48809;SDS011;40070;47.322;18.784;2024-01-15T11:18:31;5.78;;;2.60;;
48809;SDS011;40070;47.322;18.784;2024-01-15T11:20:40;7.58;;;3.00;;
48809;SDS011;40070;47.322;18.784;2024-01-15T11:24:37;5.39;;;2.40;;
48809;SDS011;40070;47.322;18.784;2024-01-15T11:26:46;7.88;;;2.90;;
48809;SDS011;40070;47.322;18.784;2024-01-15T11:29:00;10.18;;;3.10;;
48809;SDS011;40070;47.322;18.784;2024-01-15T11:31:03;6.48;;;2.50;;
48809;SDS011;40070;47.322;18.784;2024-01-15T11:33:07;5.48;;;2.60;;
48809;SDS011;40070;47.322;18.784;2024-01-15T11:35:47;7.37;;;2.70;;
48809;SDS011;40070;47.322;18.784;2024-01-15T11:39:45;6.38;;;2.30;;
48809;SDS011;40070;47.322;18.784;2024-01-15T11:41:46;7.97;;;2.80;;
48809;SDS011;40070;47.322;18.784;2024-01-15T11:43:49;6.38;;;2.70;;
48809;SDS011;40070;47.322;18.784;2024-01-15T11:45:52;6.58;;;2.30;;
48809;SDS011;40070;47.322;18.784;2024-01-15T11:48:13;5.48;;;2.10;;
48809;SDS011;40070;47.322;18.784;2024-01-15T11:50:20;7.77;;;2.30;;
48809;SDS011;40070;47.322;18.784;2024-01-15T11:52:22;6.77;;;3.00;;